createdAt,value
2018-08-16T00:00:30.259Z,101887.45
2018-08-16T00:02:59.177Z,101887.47
2018-08-16T00:05:28.211Z,101886.48
2018-08-16T00:07:57.503Z,101887.09
2018-08-16T00:10:26.525Z,101886.70
2018-08-16T00:12:55.390Z,101884.73
2018-08-16T00:15:24.215Z,101882.53
2018-08-16T00:17:53.133Z,101886.91
2018-08-16T00:20:22.264Z,101880.77
2018-08-16T00:22:51.251Z,101881.36
2018-08-16T00:25:20.619Z,101878.59
2018-08-16T00:27:49.472Z,101881.98
2018-08-16T00:30:19.598Z,101882.94
2018-08-16T00:32:48.583Z,101884.34
2018-08-16T00:35:17.420Z,101883.17
2018-08-16T00:37:46.256Z,101873.64
2018-08-16T00:40:16.383Z,101881.59
2018-08-16T00:42:45.373Z,101878.63
2018-08-16T00:45:20.357Z,101878.23
2018-08-16T00:47:49.244Z,101878.41
2018-08-16T00:50:18.056Z,101878.20
2018-08-16T00:52:46.987Z,101874.82
2018-08-16T00:55:15.827Z,101877.44
2018-08-16T00:57:44.968Z,101877.83
2018-08-16T01:00:15.712Z,101873.48
2018-08-16T01:02:45.181Z,101870.47
2018-08-16T01:05:14.376Z,101871.06
2018-08-16T01:07:43.261Z,101869.89
2018-08-16T01:10:13.223Z,101858.19
2018-08-16T01:12:43.243Z,101863.39
2018-08-16T01:15:14.569Z,101860.22
2018-08-16T01:17:43.598Z,101858.83
2018-08-16T01:20:12.989Z,101855.66
2018-08-16T01:22:42.014Z,101859.39
2018-08-16T01:25:11.599Z,101860.78
2018-08-16T01:27:40.596Z,101852.46
2018-08-16T01:30:10.309Z,101859.77
2018-08-16T01:32:39.163Z,101858.41
2018-08-16T01:35:09.000Z,101856.03
2018-08-16T01:37:38.324Z,101852.25
2018-08-16T01:40:08.173Z,101856.22
2018-08-16T01:42:37.735Z,101857.03
2018-08-16T01:45:07.090Z,101852.66
2018-08-16T01:47:35.941Z,101851.85
2018-08-16T01:50:06.708Z,101852.47
2018-08-16T01:52:35.574Z,101853.45
2018-08-16T01:55:05.180Z,101845.33
2018-08-16T01:57:34.008Z,101842.77
2018-08-16T02:00:03.936Z,101844.74
2018-08-16T02:02:32.816Z,101842.95
2018-08-16T02:05:01.708Z,101843.34
2018-08-16T02:07:30.479Z,101837.19
2018-08-16T02:09:59.347Z,101839.97
2018-08-16T02:12:28.219Z,101839.20
2018-08-16T02:14:57.268Z,101841.17
2018-08-16T02:17:26.082Z,101834.42
2018-08-16T02:19:55.016Z,101835.44
2018-08-16T02:22:23.838Z,101834.43
2018-08-16T02:24:52.649Z,101830.27
2018-08-16T02:27:21.560Z,101827.31
2018-08-16T02:29:50.439Z,101826.73
2018-08-16T02:32:19.248Z,101828.72
2018-08-16T02:34:48.091Z,101827.14
2018-08-16T02:37:16.910Z,101828.12
2018-08-16T02:39:45.783Z,101826.91
2018-08-16T02:42:14.730Z,101821.77
2018-08-16T02:44:43.497Z,101825.93
2018-08-16T02:47:12.464Z,101826.15
2018-08-16T02:49:41.239Z,101825.70
2018-08-16T02:52:10.149Z,101819.40
2018-08-16T02:54:38.973Z,101814.84
2018-08-16T02:57:07.809Z,101811.86
2018-08-16T02:59:36.633Z,101812.48
2018-08-16T03:02:05.631Z,101820.16
2018-08-16T03:04:34.635Z,101813.64
2018-08-16T03:07:03.828Z,101809.08
2018-08-16T03:09:32.700Z,101808.50
2018-08-16T03:12:01.620Z,101805.50
2018-08-16T03:14:30.416Z,101797.14
2018-08-16T03:16:59.327Z,101797.98
2018-08-16T03:19:28.110Z,101801.34
2018-08-16T03:21:56.964Z,101799.55
2018-08-16T03:24:25.737Z,101805.52
2018-08-16T03:26:54.584Z,101801.98
2018-08-16T03:29:23.489Z,101797.25
2018-08-16T03:31:52.361Z,101796.80
2018-08-16T03:34:21.183Z,101798.02
2018-08-16T03:36:50.038Z,101799.61
2018-08-16T03:39:18.849Z,101791.09
2018-08-16T03:41:47.807Z,101790.91
2018-08-16T03:44:16.647Z,101789.12
2018-08-16T03:46:45.475Z,101792.80
2018-08-16T03:49:14.324Z,101794.02
2018-08-16T03:51:43.464Z,101791.09
2018-08-16T03:54:12.387Z,101795.86
2018-08-16T03:56:41.240Z,101793.63
2018-08-16T03:59:10.059Z,101794.64
2018-08-16T04:01:38.906Z,101789.70
2018-08-16T04:04:07.789Z,101795.63
2018-08-16T04:06:36.649Z,101785.14
2018-08-16T04:09:07.327Z,101787.45
2018-08-16T04:11:36.380Z,101786.92
2018-08-16T04:14:05.347Z,101788.08
2018-08-16T04:16:34.148Z,101791.25
2018-08-16T04:19:03.184Z,101785.67
2018-08-16T04:21:32.070Z,101786.33
2018-08-16T04:24:00.989Z,101792.64
2018-08-16T04:26:29.865Z,101792.06
2018-08-16T04:28:58.977Z,101796.73
2018-08-16T04:31:27.824Z,101791.18
2018-08-16T04:33:56.897Z,101787.45
2018-08-16T04:36:25.740Z,101794.09
2018-08-16T04:38:54.519Z,101786.06
2018-08-16T04:41:23.436Z,101789.41
2018-08-16T04:43:52.295Z,101784.65
2018-08-16T04:46:21.241Z,101788.58
2018-08-16T04:48:50.069Z,101785.23
2018-08-16T04:51:18.905Z,101789.05
2018-08-16T04:53:47.683Z,101793.71
2018-08-16T04:56:16.629Z,101790.58
2018-08-16T04:58:45.493Z,101791.59
2018-08-16T05:01:14.356Z,101794.95
2018-08-16T05:03:43.132Z,101802.68
2018-08-16T05:06:12.040Z,101795.47
2018-08-16T05:08:41.319Z,101791.77
2018-08-16T05:11:10.294Z,101792.80
2018-08-16T05:13:39.152Z,101793.55
2018-08-16T05:16:07.983Z,101786.45
2018-08-16T05:18:36.769Z,101792.39
2018-08-16T05:21:05.984Z,101792.59
2018-08-16T05:23:34.843Z,101786.86
2018-08-16T05:26:03.984Z,101787.04
2018-08-16T05:28:32.738Z,101791.06
2018-08-16T05:31:01.521Z,101791.09
2018-08-16T05:33:30.463Z,101786.36
2018-08-16T05:35:59.312Z,101787.95
2018-08-16T05:38:28.184Z,101793.06
2018-08-16T05:40:57.020Z,101788.72
2018-08-16T05:43:25.929Z,101791.73
2018-08-16T05:45:54.844Z,101782.89
2018-08-16T05:48:23.648Z,101789.52
2018-08-16T05:50:52.520Z,101784.36
2018-08-16T05:53:21.271Z,101787.59
2018-08-16T05:55:50.063Z,101787.14
2018-08-16T05:58:18.979Z,101789.27
2018-08-16T06:00:47.831Z,101779.80
2018-08-16T06:03:16.703Z,101787.50
2018-08-16T06:05:45.516Z,101777.64
2018-08-16T06:08:14.392Z,101786.52
2018-08-16T06:10:43.341Z,101783.95
2018-08-16T06:13:12.168Z,101780.58
2018-08-16T06:15:41.074Z,101784.54
2018-08-16T06:18:10.136Z,101781.81
2018-08-16T06:20:40.025Z,101779.39
2018-08-16T06:23:09.463Z,101782.17
2018-08-16T06:25:38.391Z,101779.80
2018-08-16T06:28:07.456Z,101773.89
2018-08-16T06:30:36.267Z,101771.34
2018-08-16T06:33:05.210Z,101771.34
2018-08-16T06:35:34.310Z,101772.26
2018-08-16T06:38:03.217Z,101761.66
2018-08-16T06:40:32.116Z,101760.06
2018-08-16T06:43:00.966Z,101763.88
2018-08-16T06:45:31.843Z,101765.13
2018-08-16T06:48:00.846Z,101763.83
2018-08-16T06:50:29.773Z,101761.16
2018-08-16T06:52:58.697Z,101758.92
2018-08-16T06:55:27.614Z,101754.75
2018-08-16T06:57:56.540Z,101760.50
2018-08-16T07:00:25.498Z,101758.48
2018-08-16T07:02:54.396Z,101760.11
2018-08-16T07:05:23.336Z,101757.16
2018-08-16T07:07:52.137Z,101754.81
2018-08-16T07:10:21.071Z,101747.00
2018-08-16T07:12:50.082Z,101750.23
2018-08-16T07:15:18.963Z,101758.05
2018-08-16T07:17:47.819Z,101749.08
2018-08-16T07:20:16.850Z,101751.77
2018-08-16T07:22:45.695Z,101759.67
2018-08-16T07:25:14.551Z,101747.44
2018-08-16T07:27:43.425Z,101752.30
2018-08-16T07:30:12.302Z,101752.59
2018-08-16T07:32:41.143Z,101751.44
2018-08-16T07:35:10.369Z,101744.05
2018-08-16T07:37:39.368Z,101744.31
2018-08-16T07:40:09.132Z,101745.63
2018-08-16T07:42:37.980Z,101750.73
2018-08-16T07:45:09.486Z,101748.06
2018-08-16T07:47:38.868Z,101749.59
2018-08-16T07:50:09.961Z,101742.63
2018-08-16T07:52:39.836Z,101743.98
2018-08-16T07:55:09.497Z,101745.21
2018-08-16T07:57:38.353Z,101744.12
2018-08-16T08:00:13.747Z,101743.05
2018-08-16T08:02:42.846Z,101742.06
2018-08-16T08:05:12.111Z,101740.75
2018-08-16T08:07:41.252Z,101746.01
2018-08-16T08:10:10.495Z,101728.98
2018-08-16T08:12:39.351Z,101739.03
2018-08-16T08:15:11.937Z,101728.73
2018-08-16T08:17:40.883Z,101730.52
2018-08-16T08:20:13.692Z,101727.97
2018-08-16T08:22:42.907Z,101728.76
2018-08-16T08:25:12.925Z,101724.96
2018-08-16T08:27:41.779Z,101719.80
2018-08-16T08:30:15.599Z,101718.86
2018-08-16T08:32:44.539Z,101714.05
2018-08-16T08:35:13.464Z,101712.53
2018-08-16T08:38:13.127Z,101714.73
2018-08-16T08:40:41.947Z,101708.39
2018-08-16T08:43:20.776Z,101710.00
2018-08-16T08:45:55.515Z,101706.92
2018-08-16T08:48:24.531Z,101711.69
2018-08-16T08:50:53.370Z,101709.16
2018-08-16T08:55:09.436Z,101691.23
2018-08-16T08:58:00.344Z,101700.02
2018-08-16T09:00:29.174Z,101690.42
2018-08-16T09:02:58.072Z,101686.34
2018-08-16T09:05:27.072Z,101699.30
2018-08-16T09:07:55.856Z,101688.11
2018-08-16T09:11:08.532Z,101681.99
2018-08-16T09:13:55.488Z,101687.65
2018-08-16T09:16:30.859Z,101677.96
2018-08-16T09:19:00.127Z,101682.19
2018-08-16T09:21:29.682Z,101668.86
2018-08-16T09:23:58.703Z,101673.56
2018-08-16T09:26:33.159Z,101674.45
2018-08-16T09:29:02.103Z,101665.50
2018-08-16T09:31:47.900Z,101668.95
2018-08-16T09:34:24.379Z,101671.01
2018-08-16T09:36:53.283Z,101665.25
2018-08-16T09:39:22.279Z,101669.53
2018-08-16T09:41:51.104Z,101678.45
2018-08-16T09:44:19.986Z,101669.03
2018-08-16T09:47:09.504Z,101657.02
2018-08-16T09:49:46.212Z,101658.47
2018-08-16T09:52:15.564Z,101656.13
2018-08-16T09:54:44.475Z,101658.54
2018-08-16T09:57:14.390Z,101657.75
2018-08-16T09:59:43.444Z,101657.06
2018-08-16T10:02:15.563Z,101658.53
2018-08-16T10:04:44.404Z,101657.19
2018-08-16T10:07:13.239Z,101655.75
2018-08-16T10:09:42.120Z,101658.73
2018-08-16T10:12:11.033Z,101646.30
2018-08-16T10:14:39.847Z,101640.77
2018-08-16T10:17:09.108Z,101634.14
2018-08-16T10:19:37.883Z,101637.23
2018-08-16T10:22:06.875Z,101636.84
2018-08-16T10:24:35.771Z,101639.91
2018-08-16T10:27:04.946Z,101635.72
2018-08-16T10:29:33.721Z,101628.05
2018-08-16T10:32:02.596Z,101634.77
2018-08-16T10:34:31.387Z,101626.72
2018-08-16T10:37:00.323Z,101623.91
2018-08-16T10:39:29.139Z,101628.35
2018-08-16T10:41:57.964Z,101623.13
2018-08-16T10:44:26.788Z,101623.90
2018-08-16T10:46:55.667Z,101620.16
2018-08-16T10:49:24.515Z,101618.67
2018-08-16T10:51:53.384Z,101616.91
2018-08-16T10:54:22.260Z,101621.05
2018-08-16T10:56:51.096Z,101620.90
2018-08-16T10:59:19.900Z,101629.11
2018-08-16T11:01:49.059Z,101624.91
2018-08-16T11:04:17.970Z,101623.56
2018-08-16T11:06:46.780Z,101617.72
2018-08-16T11:09:17.351Z,101609.02
2018-08-16T11:11:46.140Z,101609.16
2018-08-16T11:14:15.072Z,101611.42
2018-08-16T11:16:44.184Z,101603.75
2018-08-16T11:19:13.033Z,101611.28
2018-08-16T11:21:42.005Z,101611.71
2018-08-16T11:24:10.892Z,101614.42
2018-08-16T11:26:39.871Z,101607.62
2018-08-16T11:29:08.729Z,101600.09
2018-08-16T11:31:37.513Z,101605.59
2018-08-16T11:34:06.429Z,101594.21
2018-08-16T11:36:35.201Z,101597.95
2018-08-16T11:39:05.910Z,101603.37
2018-08-16T11:41:34.764Z,101603.04
2018-08-16T11:44:03.995Z,101591.26
2018-08-16T11:46:32.946Z,101596.30
2018-08-16T11:49:01.740Z,101595.67
2018-08-16T11:51:30.608Z,101587.47
2018-08-16T11:53:59.422Z,101580.04
2018-08-16T11:56:28.223Z,101582.88
2018-08-16T11:58:57.004Z,101575.80
2018-08-16T12:01:25.809Z,101580.44
2018-08-16T12:03:54.984Z,101574.13
2018-08-16T12:06:23.851Z,101577.81
2018-08-16T12:08:52.634Z,101573.49
2018-08-16T12:11:21.759Z,101565.26
2018-08-16T12:13:50.517Z,101569.22
2018-08-16T12:16:19.413Z,101572.27
2018-08-16T12:18:48.195Z,101561.73
2018-08-16T12:21:17.033Z,101565.19
2018-08-16T12:23:45.804Z,101561.40
2018-08-16T12:26:14.736Z,101558.47
2018-08-16T12:28:43.596Z,101557.06
2018-08-16T12:31:12.434Z,101550.80
2018-08-16T12:33:41.195Z,101547.91
2018-08-16T12:36:10.053Z,101549.66
2018-08-16T12:38:38.800Z,101555.37
2018-08-16T12:41:07.918Z,101550.00
2018-08-16T12:43:36.910Z,101544.17
2018-08-16T12:46:05.873Z,101553.98
2018-08-16T12:48:34.708Z,101540.28
2018-08-16T12:51:03.580Z,101543.22
2018-08-16T12:53:32.519Z,101531.53
2018-08-16T12:56:01.310Z,101528.17
2018-08-16T12:58:30.132Z,101533.36
2018-08-16T13:00:58.960Z,101525.92
2018-08-16T13:03:27.824Z,101518.48
2018-08-16T13:05:56.707Z,101520.02
2018-08-16T13:08:25.629Z,101523.67
2018-08-16T13:10:54.429Z,101516.34
2018-08-16T13:13:23.276Z,101512.34
2018-08-16T13:15:52.056Z,101510.86
2018-08-16T13:18:20.985Z,101512.66
2018-08-16T13:20:49.871Z,101507.55
2018-08-16T13:23:18.951Z,101516.62
2018-08-16T13:25:47.748Z,101510.30
2018-08-16T13:28:16.573Z,101510.44
2018-08-16T13:30:45.497Z,101504.33
2018-08-16T13:33:14.668Z,101506.88
2018-08-16T13:35:43.461Z,101500.94
2018-08-16T13:38:12.311Z,101507.45
2018-08-16T13:40:41.163Z,101500.02
2018-08-16T13:43:10.048Z,101499.83
2018-08-16T13:45:38.853Z,101502.69
2018-08-16T13:48:07.758Z,101490.52
2018-08-16T13:50:36.848Z,101492.72
2018-08-16T13:53:05.892Z,101487.89
2018-08-16T13:55:34.829Z,101484.09
2018-08-16T13:58:03.727Z,101486.57
2018-08-16T14:00:32.576Z,101491.28
2018-08-16T14:03:01.368Z,101491.25
2018-08-16T14:05:30.196Z,101489.56
2018-08-16T14:07:59.047Z,101485.49
2018-08-16T14:10:27.908Z,101488.98
2018-08-16T14:12:56.768Z,101479.25
2018-08-16T14:15:25.605Z,101482.66
2018-08-16T14:17:54.478Z,101476.87
2018-08-16T14:20:23.434Z,101477.59
2018-08-16T14:22:52.243Z,101481.87
2018-08-16T14:25:21.067Z,101471.73
2018-08-16T14:27:49.875Z,101467.70
2018-08-16T14:30:19.004Z,101461.33
2018-08-16T14:32:47.879Z,101460.70
2018-08-16T14:35:16.732Z,101463.84
2018-08-16T14:37:45.519Z,101469.16
2018-08-16T14:40:14.468Z,101471.36
2018-08-16T14:42:43.361Z,101464.34
2018-08-16T14:45:12.209Z,101469.79
2018-08-16T14:47:41.144Z,101465.56
2018-08-16T14:50:09.957Z,101457.11
2018-08-16T14:52:38.786Z,101468.03
2018-08-16T14:55:07.697Z,101475.39
2018-08-16T14:57:36.628Z,101470.52
2018-08-16T15:00:07.147Z,101467.55
2018-08-16T15:02:36.036Z,101466.00
2018-08-16T15:05:06.114Z,101469.28
2018-08-16T15:07:35.105Z,101463.99
2018-08-16T15:10:05.088Z,101466.96
2018-08-16T15:12:34.303Z,101460.37
2018-08-16T15:15:03.165Z,101461.64
2018-08-16T15:17:31.991Z,101461.94
2018-08-16T15:20:00.750Z,101459.25
2018-08-16T15:22:30.002Z,101458.31
2018-08-16T15:24:58.783Z,101457.82
2018-08-16T15:27:27.664Z,101456.25
2018-08-16T15:29:56.504Z,101453.63
2018-08-16T15:32:25.414Z,101454.60
2018-08-16T15:34:54.275Z,101453.98
2018-08-16T15:37:23.149Z,101453.67
2018-08-16T15:39:51.934Z,101454.16
2018-08-16T15:42:20.760Z,101448.98
2018-08-16T15:44:49.604Z,101456.33
2018-08-16T15:47:18.515Z,101459.13
2018-08-16T15:49:47.400Z,101454.92
2018-08-16T15:52:16.238Z,101458.83
2018-08-16T15:54:45.076Z,101451.39
2018-08-16T15:57:14.120Z,101456.45
2018-08-16T15:59:43.286Z,101447.88
2018-08-16T16:02:12.332Z,101451.08
2018-08-16T16:04:41.240Z,101449.66
2018-08-16T16:07:10.072Z,101444.57
2018-08-16T16:09:38.908Z,101446.63
2018-08-16T16:12:08.099Z,101447.18
2018-08-16T16:14:36.960Z,101451.56
2018-08-16T16:17:05.960Z,101452.92
2018-08-16T16:19:34.775Z,101446.37
2018-08-16T16:22:03.951Z,101455.08
2018-08-16T16:24:32.891Z,101458.36
2018-08-16T16:27:01.691Z,101453.50
2018-08-16T16:29:30.536Z,101445.52
2018-08-16T16:31:59.425Z,101445.73
2018-08-16T16:34:28.270Z,101443.86
2018-08-16T16:36:57.180Z,101441.26
2018-08-16T16:39:26.098Z,101444.98
2018-08-16T16:41:54.960Z,101451.73
2018-08-16T16:44:23.769Z,101447.09
2018-08-16T16:46:52.704Z,101442.81
2018-08-16T16:49:22.443Z,101450.70
2018-08-16T16:51:52.404Z,101445.45
2018-08-16T16:54:21.341Z,101443.03
2018-08-16T16:56:51.008Z,101449.18
2018-08-16T16:59:19.872Z,101445.23
2018-08-16T17:01:48.779Z,101446.73
2018-08-16T17:04:17.605Z,101449.54
2018-08-16T17:06:46.372Z,101452.62
2018-08-16T17:09:15.086Z,101453.00
2018-08-16T17:11:43.848Z,101456.34
2018-08-16T17:14:12.704Z,101449.47
2018-08-16T17:16:41.457Z,101457.41
2018-08-16T17:19:10.293Z,101455.00
2018-08-16T17:21:39.049Z,101454.86
2018-08-16T17:24:07.764Z,101460.94
2018-08-16T17:26:36.639Z,101454.75
2018-08-16T17:29:05.526Z,101456.39
2018-08-16T17:31:34.453Z,101455.16
2018-08-16T17:34:03.288Z,101457.09
2018-08-16T17:36:32.156Z,101461.56
2018-08-16T17:39:01.044Z,101458.86
2018-08-16T17:41:29.894Z,101460.41
2018-08-16T17:43:58.836Z,101463.06
2018-08-16T17:46:27.619Z,101465.97
2018-08-16T17:48:56.572Z,101462.11
2018-08-16T17:51:26.168Z,101461.52
2018-08-16T17:53:55.935Z,101469.23
2018-08-16T17:56:25.297Z,101468.08
2018-08-16T17:58:54.167Z,101469.10
2018-08-16T18:01:23.028Z,101470.92
2018-08-16T18:03:52.126Z,101471.72
2018-08-16T18:06:20.974Z,101469.12
2018-08-16T18:08:49.839Z,101470.42
2018-08-16T18:11:18.774Z,101474.77
2018-08-16T18:13:47.643Z,101476.61
2018-08-16T18:16:16.547Z,101475.31
2018-08-16T18:18:45.403Z,101476.16
2018-08-16T18:21:14.192Z,101475.06
2018-08-16T18:23:43.163Z,101472.64
2018-08-16T18:26:12.052Z,101472.39
2018-08-16T18:28:40.968Z,101476.77
2018-08-16T18:31:09.836Z,101485.56
2018-08-16T18:33:38.655Z,101484.77
2018-08-16T18:36:07.570Z,101490.95
2018-08-16T18:38:37.423Z,101491.55
2018-08-16T18:41:06.523Z,101492.59
2018-08-16T18:43:35.280Z,101491.67
2018-08-16T18:46:04.168Z,101495.70
2018-08-16T18:48:33.067Z,101507.73
2018-08-16T18:51:01.895Z,101507.68
2018-08-16T18:53:30.926Z,101514.16
2018-08-16T18:55:59.785Z,101511.00
2018-08-16T18:58:28.582Z,101515.47
2018-08-16T19:00:57.424Z,101517.97
2018-08-16T19:03:26.247Z,101524.02
2018-08-16T19:05:55.166Z,101532.00
2018-08-16T19:08:24.004Z,101539.39
2018-08-16T19:10:52.915Z,101545.59
2018-08-16T19:13:22.243Z,101536.00
2018-08-16T19:15:50.670Z,101551.44
2018-08-16T19:18:19.611Z,101544.89
2018-08-16T19:20:48.495Z,101548.78
2018-08-16T19:23:17.418Z,101544.35
2018-08-16T19:25:46.272Z,101541.14
2018-08-16T19:28:15.027Z,101539.02
2018-08-16T19:30:43.993Z,101545.00
2018-08-16T19:33:12.780Z,101546.70
2018-08-16T19:35:41.606Z,101544.63
2018-08-16T19:38:10.480Z,101552.85
2018-08-16T19:40:39.276Z,101555.73
2018-08-16T19:43:08.307Z,101560.28
2018-08-16T19:45:37.068Z,101558.64
2018-08-16T19:48:06.682Z,101555.95
2018-08-16T19:50:35.340Z,101557.20
2018-08-16T19:53:04.265Z,101563.17
2018-08-16T19:55:33.086Z,101569.05
2018-08-16T19:58:01.892Z,101570.54
2018-08-16T20:00:30.587Z,101567.84
2018-08-16T20:02:59.370Z,101566.53
2018-08-16T20:05:28.045Z,101575.29
2018-08-16T20:07:57.089Z,101575.92
2018-08-16T20:10:25.886Z,101581.17
2018-08-16T20:12:54.756Z,101577.98
2018-08-16T20:15:23.575Z,101580.03
2018-08-16T20:17:52.485Z,101585.27
2018-08-16T20:20:21.468Z,101576.18
2018-08-16T20:22:50.342Z,101580.97
2018-08-16T20:25:19.208Z,101578.16
2018-08-16T20:27:54.804Z,101583.71
2018-08-16T20:30:23.728Z,101587.52
2018-08-16T20:32:52.531Z,101580.86
2018-08-16T20:35:21.352Z,101579.89
2018-08-16T20:37:50.217Z,101584.99
2018-08-16T20:40:19.152Z,101581.10
2018-08-16T20:42:47.971Z,101585.67
2018-08-16T20:45:23.046Z,101581.40
2018-08-16T20:47:52.043Z,101589.95
2018-08-16T20:50:20.910Z,101593.89
2018-08-16T20:52:49.785Z,101590.11
2018-08-16T20:55:18.631Z,101589.42
2018-08-16T20:57:47.431Z,101592.97
2018-08-16T21:00:16.297Z,101593.79
2018-08-16T21:02:45.064Z,101591.06
2018-08-16T21:05:13.940Z,101593.73
2018-08-16T21:07:42.732Z,101594.05
2018-08-16T21:10:11.645Z,101598.19
2018-08-16T21:12:40.408Z,101598.06
2018-08-16T21:15:09.591Z,101599.30
2018-08-16T21:17:38.863Z,101589.76
2018-08-16T21:20:07.748Z,101595.94
2018-08-16T21:22:36.573Z,101594.56
2018-08-16T21:25:06.730Z,101600.91
2018-08-16T21:27:35.616Z,101599.36
2018-08-16T21:30:06.202Z,101604.13
2018-08-16T21:32:35.088Z,101608.50
2018-08-16T21:35:04.039Z,101609.47
2018-08-16T21:37:32.868Z,101612.62
2018-08-16T21:40:01.673Z,101614.45
2018-08-16T21:42:30.591Z,101619.97
2018-08-16T21:44:59.752Z,101618.98
2018-08-16T21:47:28.605Z,101620.36
2018-08-16T21:49:57.444Z,101623.56
2018-08-16T21:52:26.317Z,101618.63
2018-08-16T21:54:55.215Z,101616.63
2018-08-16T21:57:24.057Z,101611.89
2018-08-16T21:59:52.869Z,101615.25
2018-08-16T22:02:21.741Z,101611.52
2018-08-16T22:04:50.532Z,101606.97
2018-08-16T22:08:04.251Z,101604.81
2018-08-16T22:10:33.305Z,101605.42
2018-08-16T22:13:02.380Z,101607.58
2018-08-16T22:15:31.183Z,101608.97
2018-08-16T22:18:00.104Z,101610.17
2018-08-16T22:20:28.898Z,101618.23
2018-08-16T22:22:57.812Z,101615.09
2018-08-16T22:25:26.863Z,101612.70
2018-08-16T22:27:55.687Z,101614.88
2018-08-16T22:30:24.770Z,101614.48
2018-08-16T22:32:53.600Z,101613.47
2018-08-16T22:35:22.395Z,101618.35
2018-08-16T22:37:51.367Z,101618.95
2018-08-16T22:40:20.162Z,101620.14
2018-08-16T22:42:49.355Z,101623.36
2018-08-16T22:45:18.256Z,101616.06
2018-08-16T22:47:47.095Z,101621.36
2018-08-16T22:50:15.983Z,101619.17
2018-08-16T22:52:44.738Z,101619.58
2018-08-16T22:55:13.609Z,101618.39
2018-08-16T22:57:42.412Z,101609.14
2018-08-16T23:00:11.911Z,101608.25
2018-08-16T23:02:41.478Z,101603.74
2018-08-16T23:05:10.478Z,101598.91
2018-08-16T23:07:39.327Z,101607.48
2018-08-16T23:10:08.228Z,101602.55
2018-08-16T23:12:37.072Z,101603.19
2018-08-16T23:15:07.074Z,101592.89
2018-08-16T23:17:36.212Z,101594.02
2018-08-16T23:20:06.788Z,101595.80
2018-08-16T23:22:35.571Z,101593.37
2018-08-16T23:25:04.985Z,101591.94
2018-08-16T23:27:33.777Z,101594.69
2018-08-16T23:30:02.797Z,101592.52
2018-08-16T23:32:31.687Z,101587.83
2018-08-16T23:35:00.518Z,101589.37
2018-08-16T23:37:29.305Z,101585.00
2018-08-16T23:39:58.131Z,101587.78
2018-08-16T23:42:27.223Z,101583.83
2018-08-16T23:44:56.091Z,101581.47
2018-08-16T23:47:25.976Z,101577.89
2018-08-16T23:49:54.942Z,101569.96
2018-08-16T23:52:23.789Z,101571.18
2018-08-16T23:54:52.591Z,101572.88
2018-08-16T23:57:21.855Z,101576.45
2018-08-16T23:59:50.673Z,101572.94
